Time;durP1;ratioP1;P1;durP2;ratioP2;P2;SDS_P1;SDS_P2;PMS_P1;PMS_P2;Temp;Humidity;BMP_temperature;BMP_pressure;BME280_temperature;BME280_humidity;BME280_pressure;Samples;Min_cycle;Max_cycle;Signal;HPM_P1;HPM_P2
2022/11/23 00:02:14;;;;;;;5.32;4.93;;;;;;;;;;5064824;28;20045;-58
2022/11/23 00:04:40;;;;;;;6.47;5.88;;;;;;;;;;5064629;28;20090;-58
2022/11/23 00:07:06;;;;;;;6.10;5.50;;;;;;;;;;5064726;28;20128;-58
2022/11/23 00:09:32;;;;;;;5.45;5.05;;;;;;;;;;5065372;28;20040;-58
2022/11/23 00:11:58;;;;;;;5.38;4.97;;;;;;;;;;5065345;28;20064;-58
2022/11/23 00:14:24;;;;;;;5.75;5.18;;;;;;;;;;5065188;28;20040;-58
2022/11/23 00:16:50;;;;;;;5.22;4.78;;;;;;;;;;5065781;28;20041;-58
2022/11/23 00:19:16;;;;;;;5.47;4.78;;;;;;;;;;5064423;28;20396;-59
2022/11/23 00:21:42;;;;;;;4.78;3.88;;;;;;;;;;5065606;28;20059;-58
2022/11/23 00:24:10;;;;;;;4.63;4.15;;;;;;;;;;5065044;28;20049;-59
2022/11/23 00:26:36;;;;;;;4.32;3.92;;;;;;;;;;5064438;28;20656;-58
2022/11/23 00:29:02;;;;;;;3.45;3.25;;;;;;;;;;5065887;28;20084;-59
2022/11/23 00:31:28;;;;;;;5.00;3.95;;;;;;;;;;5066675;28;20060;-59
2022/11/23 00:33:55;;;;;;;3.60;3.30;;;;;;;;;;5067967;28;20094;-58
2022/11/23 00:36:22;;;;;;;3.95;3.65;;;;;;;;;;5068180;28;20044;-59
2022/11/23 00:38:48;;;;;;;4.00;3.50;;;;;;;;;;5069781;28;20518;-59
2022/11/23 00:41:16;;;;;;;5.63;4.00;;;;;;;;;;5068529;28;20044;-59
2022/11/23 00:43:42;;;;;;;3.67;3.38;;;;;;;;;;5069476;28;20125;-58
2022/11/23 00:46:18;;;;;;;4.35;4.03;;;;;;;;;;5066000;28;20044;-59
2022/11/23 00:48:45;;;;;;;4.55;4.15;;;;;;;;;;5067123;28;20036;-58
2022/11/23 00:51:12;;;;;;;3.60;3.30;;;;;;;;;;5068646;28;20462;-59
2022/11/23 00:53:38;;;;;;;2.67;2.50;;;;;;;;;;5069274;28;20037;-58
2022/11/23 00:56:05;;;;;;;2.45;2.25;;;;;;;;;;5066762;28;20473;-59
2022/11/23 00:58:31;;;;;;;5.55;3.92;;;;;;;;;;5068592;28;20434;-58
2022/11/23 01:01:01;;;;;;;4.32;3.92;;;;;;;;;;5069309;28;20040;-58
2022/11/23 01:03:28;;;;;;;4.20;3.80;;;;;;;;;;5067260;28;20052;-58
2022/11/23 01:05:54;;;;;;;4.88;3.58;;;;;;;;;;5067126;28;20115;-58
2022/11/23 01:08:20;;;;;;;3.90;3.60;;;;;;;;;;5067930;28;20658;-58
2022/11/23 01:10:46;;;;;;;4.07;3.63;;;;;;;;;;5068824;28;20051;-58
2022/11/23 01:13:12;;;;;;;3.88;3.58;;;;;;;;;;5068246;28;20048;-58
2022/11/23 01:15:38;;;;;;;4.60;3.80;;;;;;;;;;5068133;28;20452;-58
2022/11/23 01:18:04;;;;;;;4.10;3.78;;;;;;;;;;5068501;28;20036;-59
2022/11/23 01:20:30;;;;;;;3.35;3.08;;;;;;;;;;5068457;28;20691;-58
2022/11/23 01:22:56;;;;;;;4.15;3.75;;;;;;;;;;5068048;28;20475;-58
2022/11/23 01:25:22;;;;;;;5.30;3.72;;;;;;;;;;5068408;28;20881;-58
2022/11/23 01:27:48;;;;;;;4.28;3.88;;;;;;;;;;5068898;28;20066;-58
2022/11/23 01:30:14;;;;;;;6.70;4.45;;;;;;;;;;5067272;28;20044;-58
2022/11/23 01:32:40;;;;;;;4.07;3.70;;;;;;;;;;5068409;28;20079;-58
2022/11/23 01:35:06;;;;;;;4.00;3.60;;;;;;;;;;5067984;28;20145;-58
2022/11/23 01:37:32;;;;;;;6.35;4.50;;;;;;;;;;5068152;28;20040;-59
2022/11/23 01:39:58;;;;;;;4.72;4.00;;;;;;;;;;5068358;28;20048;-58
2022/11/23 01:42:38;;;;;;;3.60;3.30;;;;;;;;;;5067372;28;20044;-58
2022/11/23 01:45:23;;;;;;;4.60;4.20;;;;;;;;;;5066236;28;20067;-58
2022/11/23 01:47:49;;;;;;;6.60;4.47;;;;;;;;;;5067044;28;20028;-59
2022/11/23 01:50:15;;;;;;;5.70;4.20;;;;;;;;;;5067482;28;20468;-58
2022/11/23 01:52:41;;;;;;;10.10;5.53;;;;;;;;;;5067463;28;20044;-58
2022/11/23 01:55:07;;;;;;;5.10;4.68;;;;;;;;;;5067925;28;20041;-58
2022/11/23 01:57:38;;;;;;;4.18;3.80;;;;;;;;;;5066698;28;20052;-58
2022/11/23 02:00:04;;;;;;;5.20;4.80;;;;;;;;;;5068071;28;21115;-58
2022/11/23 02:02:32;;;;;;;5.10;4.63;;;;;;;;;;5067856;28;20052;-58
2022/11/23 02:05:00;;;;;;;5.38;4.63;;;;;;;;;;5064841;28;20056;-59
2022/11/23 02:07:26;;;;;;;4.90;4.38;;;;;;;;;;5067063;28;20135;-59
2022/11/23 02:09:52;;;;;;;3.90;3.60;;;;;;;;;;5067938;28;20060;-58
2022/11/23 02:12:18;;;;;;;5.82;4.55;;;;;;;;;;5066408;28;20049;-59
2022/11/23 02:14:45;;;;;;;3.97;3.58;;;;;;;;;;5067816;28;20040;-58
2022/11/23 02:17:11;;;;;;;7.18;3.88;;;;;;;;;;5066900;28;20048;-58
2022/11/23 02:19:48;;;;;;;7.93;4.63;;;;;;;;;;5064922;28;20043;-58
2022/11/23 02:22:19;;;;;;;4.40;3.97;;;;;;;;;;5063662;28;20044;-58
2022/11/23 02:24:48;;;;;;;6.45;5.13;;;;;;;;;;5067320;28;20531;-58
2022/11/23 02:27:16;;;;;;;6.10;4.20;;;;;;;;;;5066085;28;20051;-58
2022/11/23 02:29:42;;;;;;;4.07;3.72;;;;;;;;;;5067421;28;20047;-58
2022/11/23 02:32:08;;;;;;;4.07;3.60;;;;;;;;;;5067168;28;20143;-60
2022/11/23 02:34:34;;;;;;;4.70;4.30;;;;;;;;;;5098555;27;20075;-59
2022/11/23 02:37:00;;;;;;;5.03;4.28;;;;;;;;;;5069382;28;20088;-58
2022/11/23 02:39:29;;;;;;;5.78;5.18;;;;;;;;;;5066520;28;20090;-58
2022/11/23 02:41:55;;;;;;;5.50;4.18;;;;;;;;;;5063576;28;20051;-58
2022/11/23 02:44:40;;;;;;;4.82;4.32;;;;;;;;;;5066914;28;20117;-58
2022/11/23 02:47:06;;;;;;;4.47;4.10;;;;;;;;;;5063961;28;20045;-58
2022/11/23 02:49:32;;;;;;;5.53;4.50;;;;;;;;;;5066328;28;20051;-58
2022/11/23 02:51:59;;;;;;;5.15;4.70;;;;;;;;;;5067028;28;20131;-58
2022/11/23 02:54:25;;;;;;;6.75;5.78;;;;;;;;;;5064612;28;20036;-58
2022/11/23 02:56:51;;;;;;;5.72;5.22;;;;;;;;;;5067169;28;20062;-58
2022/11/23 02:59:17;;;;;;;5.32;4.80;;;;;;;;;;5066146;28;21003;-59
2022/11/23 03:01:43;;;;;;;5.10;3.78;;;;;;;;;;5065972;28;20033;-58
2022/11/23 03:04:09;;;;;;;4.90;4.40;;;;;;;;;;5066706;28;20045;-58
2022/11/23 03:06:35;;;;;;;5.85;4.80;;;;;;;;;;5066391;28;20449;-58
2022/11/23 03:09:01;;;;;;;5.95;5.45;;;;;;;;;;5066017;28;20076;-58
2022/11/23 03:11:27;;;;;;;4.90;4.45;;;;;;;;;;5065300;28;20057;-59
2022/11/23 03:13:53;;;;;;;5.57;5.00;;;;;;;;;;5066792;28;20051;-59
2022/11/23 03:16:19;;;;;;;6.40;4.78;;;;;;;;;;5065710;28;20556;-59
2022/11/23 03:18:45;;;;;;;5.25;4.72;;;;;;;;;;5066173;28;20190;-59
2022/11/23 03:21:11;;;;;;;4.90;4.30;;;;;;;;;;5062656;28;20132;-59
2022/11/23 03:23:37;;;;;;;5.18;4.68;;;;;;;;;;5065488;28;20097;-59
2022/11/23 03:26:04;;;;;;;6.05;5.45;;;;;;;;;;5066341;28;20131;-58
2022/11/23 03:28:30;;;;;;;6.32;5.00;;;;;;;;;;5065952;28;20191;-59
2022/11/23 03:30:56;;;;;;;6.15;5.35;;;;;;;;;;5065382;28;20077;-59
2022/11/23 03:33:22;;;;;;;6.18;5.57;;;;;;;;;;5065927;28;20055;-59
2022/11/23 03:35:48;;;;;;;6.45;5.75;;;;;;;;;;5065727;28;20130;-59
2022/11/23 03:38:15;;;;;;;5.40;4.53;;;;;;;;;;5065429;28;20106;-59
2022/11/23 03:40:41;;;;;;;4.50;4.10;;;;;;;;;;5066111;28;20080;-59
2022/11/23 03:43:07;;;;;;;5.13;4.72;;;;;;;;;;5065175;28;20149;-59
2022/11/23 03:45:33;;;;;;;6.28;5.35;;;;;;;;;;5065664;28;20407;-59
2022/11/23 03:47:58;;;;;;;5.30;4.45;;;;;;;;;;5066218;28;20052;-59
2022/11/23 03:50:24;;;;;;;3.85;3.47;;;;;;;;;;5064404;28;20624;-59
2022/11/23 03:52:51;;;;;;;4.50;4.03;;;;;;;;;;5067802;28;20044;-58
2022/11/23 03:55:17;;;;;;;4.40;4.00;;;;;;;;;;5066789;28;20036;-59
2022/11/23 03:57:43;;;;;;;5.05;4.32;;;;;;;;;;5066850;28;20093;-60
2022/11/23 04:00:09;;;;;;;4.28;3.80;;;;;;;;;;5065924;28;20048;-59
2022/11/23 04:02:35;;;;;;;4.07;3.65;;;;;;;;;;5065390;28;20044;-59
2022/11/23 04:05:01;;;;;;;4.20;3.78;;;;;;;;;;5065123;28;20509;-59
2022/11/23 04:07:27;;;;;;;4.45;3.53;;;;;;;;;;5065099;28;20044;-59
2022/11/23 04:09:53;;;;;;;4.53;3.78;;;;;;;;;;5065614;28;20088;-59
2022/11/23 04:12:19;;;;;;;4.00;3.70;;;;;;;;;;5064749;28;20052;-58
2022/11/23 04:14:45;;;;;;;5.10;4.60;;;;;;;;;;5098167;28;20041;-59
2022/11/23 04:17:11;;;;;;;5.18;4.70;;;;;;;;;;5065324;28;20404;-59
2022/11/23 04:19:37;;;;;;;5.50;4.72;;;;;;;;;;5064979;28;20036;-59
2022/11/23 04:22:03;;;;;;;6.88;5.53;;;;;;;;;;5066019;28;20461;-60
2022/11/23 04:24:29;;;;;;;6.72;4.97;;;;;;;;;;5065552;28;20076;-59
2022/11/23 04:26:55;;;;;;;7.35;6.03;;;;;;;;;;5064920;28;20505;-59
2022/11/23 04:29:21;;;;;;;12.02;7.20;;;;;;;;;;5065276;28;20052;-59
2022/11/23 04:31:47;;;;;;;8.00;6.68;;;;;;;;;;5065556;28;20041;-59
2022/11/23 04:34:13;;;;;;;7.18;6.20;;;;;;;;;;5064747;28;20569;-59
2022/11/23 04:36:39;;;;;;;7.45;6.75;;;;;;;;;;5065282;28;20047;-59
2022/11/23 04:39:05;;;;;;;6.78;6.18;;;;;;;;;;5065128;28;20083;-59
2022/11/23 04:41:31;;;;;;;7.03;6.32;;;;;;;;;;5064846;28;20116;-58
2022/11/23 04:43:57;;;;;;;8.85;6.88;;;;;;;;;;5065720;28;20049;-59
2022/11/23 04:46:23;;;;;;;7.45;6.18;;;;;;;;;;5063593;28;20052;-59
2022/11/23 04:48:49;;;;;;;7.32;6.40;;;;;;;;;;5065791;28;20086;-59
2022/11/23 04:51:15;;;;;;;7.18;6.47;;;;;;;;;;5064901;28;20112;-59
2022/11/23 04:53:41;;;;;;;7.03;6.30;;;;;;;;;;5064875;28;20051;-59
2022/11/23 04:56:07;;;;;;;8.98;7.78;;;;;;;;;;5065461;28;20040;-58
2022/11/23 04:58:35;;;;;;;8.98;7.57;;;;;;;;;;5064796;28;20135;-59
2022/11/23 05:01:01;;;;;;;10.35;8.93;;;;;;;;;;5067033;28;20120;-59
2022/11/23 05:03:27;;;;;;;10.45;8.98;;;;;;;;;;5064747;28;20390;-59
2022/11/23 05:05:53;;;;;;;10.18;9.13;;;;;;;;;;5065263;28;20046;-59
2022/11/23 05:08:19;;;;;;;10.70;9.43;;;;;;;;;;5064793;28;20045;-59
2022/11/23 05:10:45;;;;;;;10.32;8.85;;;;;;;;;;5065190;28;20063;-59
2022/11/23 05:13:11;;;;;;;8.68;7.78;;;;;;;;;;5064825;28;20098;-59
2022/11/23 05:15:37;;;;;;;12.27;10.18;;;;;;;;;;5064075;28;20043;-59
2022/11/23 05:18:05;;;;;;;10.35;9.25;;;;;;;;;;5067170;28;20510;-59
2022/11/23 05:20:31;;;;;;;12.77;10.02;;;;;;;;;;5068471;28;20044;-59
2022/11/23 05:22:58;;;;;;;10.88;9.70;;;;;;;;;;5067804;28;20044;-58
2022/11/23 05:25:24;;;;;;;11.95;9.35;;;;;;;;;;5068790;28;20032;-59
2022/11/23 05:27:50;;;;;;;14.15;11.55;;;;;;;;;;5067831;28;20498;-59
2022/11/23 05:30:16;;;;;;;15.30;11.57;;;;;;;;;;5065668;28;20033;-59
2022/11/23 05:32:42;;;;;;;18.88;14.38;;;;;;;;;;5068536;28;20101;-59
2022/11/23 05:35:09;;;;;;;18.52;12.60;;;;;;;;;;5068006;28;20609;-58
2022/11/23 05:37:35;;;;;;;17.58;13.57;;;;;;;;;;5069001;28;20044;-59
2022/11/23 05:40:01;;;;;;;16.63;13.35;;;;;;;;;;5068208;28;20101;-59
2022/11/23 05:42:27;;;;;;;14.23;11.93;;;;;;;;;;5067032;28;20652;-59
2022/11/23 05:44:53;;;;;;;15.98;12.63;;;;;;;;;;5068291;28;20139;-59
2022/11/23 05:47:19;;;;;;;12.13;10.45;;;;;;;;;;5067477;28;20132;-59
2022/11/23 05:49:45;;;;;;;11.93;9.23;;;;;;;;;;5066439;28;20045;-59
2022/11/23 05:52:11;;;;;;;13.07;10.00;;;;;;;;;;5067408;28;20086;-59
2022/11/23 05:54:37;;;;;;;12.02;10.30;;;;;;;;;;5067270;28;20040;-59
2022/11/23 05:57:03;;;;;;;14.32;11.55;;;;;;;;;;5063931;28;20562;-59
2022/11/23 05:59:29;;;;;;;14.75;11.82;;;;;;;;;;5066950;28;20052;-59
2022/11/23 06:01:55;;;;;;;13.45;11.63;;;;;;;;;;5068082;28;20096;-59
2022/11/23 06:04:21;;;;;;;14.50;11.57;;;;;;;;;;5067204;28;20480;-59
2022/11/23 06:06:47;;;;;;;15.88;12.93;;;;;;;;;;5066547;28;20037;-59
2022/11/23 06:09:13;;;;;;;13.95;12.05;;;;;;;;;;5068390;28;20049;-59
2022/11/23 06:11:40;;;;;;;17.33;13.48;;;;;;;;;;5069460;28;20068;-59
2022/11/23 06:14:06;;;;;;;15.45;13.85;;;;;;;;;;5067967;28;20056;-58
2022/11/23 06:16:32;;;;;;;15.77;12.48;;;;;;;;;;5067535;28;20454;-59
2022/11/23 06:18:58;;;;;;;16.08;13.50;;;;;;;;;;5067188;28;20048;-59
2022/11/23 06:21:24;;;;;;;15.15;12.52;;;;;;;;;;5067027;28;20123;-59
2022/11/23 06:23:50;;;;;;;13.25;11.77;;;;;;;;;;5067063;28;20041;-59
2022/11/23 06:26:16;;;;;;;15.13;13.18;;;;;;;;;;5066082;28;20396;-59
2022/11/23 06:28:42;;;;;;;16.48;13.73;;;;;;;;;;5067542;28;20083;-59
2022/11/23 06:31:09;;;;;;;13.48;11.80;;;;;;;;;;5067593;28;20422;-58
2022/11/23 06:33:35;;;;;;;15.93;12.48;;;;;;;;;;5066518;28;20040;-59
2022/11/23 06:36:02;;;;;;;15.65;12.82;;;;;;;;;;5062047;28;20044;-58
2022/11/23 06:38:28;;;;;;;14.85;13.32;;;;;;;;;;5066641;28;20084;-59
2022/11/23 06:40:58;;;;;;;17.52;13.85;;;;;;;;;;5066476;28;20514;-59
2022/11/23 06:43:24;;;;;;;13.20;11.18;;;;;;;;;;5066819;28;20041;-59
2022/11/23 06:45:50;;;;;;;13.75;11.85;;;;;;;;;;5066613;28;20036;-58
2022/11/23 06:48:16;;;;;;;12.95;11.50;;;;;;;;;;5069930;28;20047;-59
2022/11/23 06:50:42;;;;;;;14.80;12.50;;;;;;;;;;5065341;28;20068;-59
2022/11/23 06:53:11;;;;;;;15.90;13.10;;;;;;;;;;5098594;28;20048;-59
2022/11/23 06:55:37;;;;;;;16.10;12.75;;;;;;;;;;5065842;28;20084;-59
2022/11/23 06:58:04;;;;;;;13.45;11.68;;;;;;;;;;5066840;28;20133;-59
2022/11/23 07:00:30;;;;;;;14.30;11.20;;;;;;;;;;5064058;28;20045;-59
2022/11/23 07:02:56;;;;;;;15.63;12.65;;;;;;;;;;5066115;28;20094;-59
2022/11/23 07:05:23;;;;;;;14.27;10.23;;;;;;;;;;5063650;28;20063;-59
2022/11/23 07:07:49;;;;;;;11.20;10.05;;;;;;;;;;5065997;28;20067;-59
2022/11/23 07:10:15;;;;;;;10.93;9.48;;;;;;;;;;5062634;28;20583;-59
2022/11/23 07:12:41;;;;;;;9.38;8.23;;;;;;;;;;5066628;28;20403;-59
2022/11/23 07:15:08;;;;;;;10.35;9.30;;;;;;;;;;5065429;28;20055;-59
2022/11/23 07:17:37;;;;;;;9.10;7.70;;;;;;;;;;5066218;28;20047;-59
2022/11/23 07:20:03;;;;;;;7.43;6.72;;;;;;;;;;5067709;28;20041;-59
2022/11/23 07:22:29;;;;;;;9.43;8.52;;;;;;;;;;5065676;28;20695;-59
2022/11/23 07:24:55;;;;;;;8.07;7.00;;;;;;;;;;5068763;28;20048;-59
2022/11/23 07:27:22;;;;;;;7.45;6.75;;;;;;;;;;5066062;28;20763;-59
2022/11/23 07:29:48;;;;;;;8.43;7.60;;;;;;;;;;5062743;28;20051;-59
2022/11/23 07:32:14;;;;;;;8.93;7.32;;;;;;;;;;5064411;28;20045;-59
2022/11/23 07:34:40;;;;;;;6.97;6.32;;;;;;;;;;5065670;28;20040;-59
2022/11/23 07:37:07;;;;;;;6.05;5.38;;;;;;;;;;5065193;28;20044;-59
2022/11/23 07:39:33;;;;;;;6.68;5.95;;;;;;;;;;5066646;28;20052;-59
2022/11/23 07:41:59;;;;;;;6.20;5.60;;;;;;;;;;5064950;28;20067;-59
2022/11/23 07:44:24;;;;;;;8.20;7.38;;;;;;;;;;5064781;28;20049;-59
2022/11/23 07:46:53;;;;;;;7.65;6.85;;;;;;;;;;5065742;28;20442;-58
2022/11/23 07:49:20;;;;;;;9.70;7.38;;;;;;;;;;5064349;28;20044;-59
2022/11/23 07:51:46;;;;;;;9.63;6.85;;;;;;;;;;5065274;28;20487;-59
2022/11/23 07:54:12;;;;;;;8.57;7.47;;;;;;;;;;5065073;28;20048;-59
2022/11/23 07:56:38;;;;;;;9.50;7.07;;;;;;;;;;5064580;28;20541;-59
2022/11/23 07:59:04;;;;;;;8.13;7.10;;;;;;;;;;5064740;28;20052;-59
2022/11/23 08:01:30;;;;;;;11.27;7.85;;;;;;;;;;5065729;28;20093;-59
2022/11/23 08:03:56;;;;;;;10.35;7.18;;;;;;;;;;5065351;28;20048;-59
2022/11/23 08:06:22;;;;;;;7.05;5.97;;;;;;;;;;5064267;28;20145;-59
2022/11/23 08:08:49;;;;;;;12.38;6.72;;;;;;;;;;5066208;28;20132;-59
2022/11/23 08:11:17;;;;;;;11.68;7.35;;;;;;;;;;5064592;28;20499;-59
2022/11/23 08:13:43;;;;;;;7.53;6.07;;;;;;;;;;5064971;28;20529;-59
2022/11/23 08:16:09;;;;;;;7.35;5.72;;;;;;;;;;5065235;28;20048;-58
2022/11/23 08:18:36;;;;;;;7.90;5.78;;;;;;;;;;5063420;28;20069;-59
2022/11/23 08:21:02;;;;;;;6.65;4.70;;;;;;;;;;5064569;28;20506;-59
2022/11/23 08:23:28;;;;;;;7.25;6.13;;;;;;;;;;5064742;28;20063;-59
2022/11/23 08:25:54;;;;;;;6.63;5.30;;;;;;;;;;5067302;28;20447;-59
2022/11/23 08:28:20;;;;;;;5.07;4.25;;;;;;;;;;5070609;28;20135;-59
2022/11/23 08:30:46;;;;;;;5.65;4.85;;;;;;;;;;5067052;28;20090;-59
2022/11/23 08:33:12;;;;;;;6.38;4.85;;;;;;;;;;5064094;28;20068;-59
2022/11/23 08:35:39;;;;;;;5.53;4.65;;;;;;;;;;5064579;28;20041;-59
2022/11/23 08:38:06;;;;;;;6.28;4.38;;;;;;;;;;5065774;28;20052;-59
2022/11/23 08:40:32;;;;;;;8.55;5.13;;;;;;;;;;5065050;28;20128;-59
2022/11/23 08:42:58;;;;;;;7.68;5.85;;;;;;;;;;5064802;28;20040;-57
2022/11/23 08:45:24;;;;;;;6.38;4.43;;;;;;;;;;5066422;28;20120;-57
2022/11/23 08:47:51;;;;;;;7.03;4.47;;;;;;;;;;5085027;28;20077;-54
2022/11/23 08:50:17;;;;;;;6.07;5.05;;;;;;;;;;5073975;28;20674;-59
2022/11/23 08:52:43;;;;;;;7.20;4.68;;;;;;;;;;5066659;28;20047;-59
2022/11/23 08:55:09;;;;;;;7.22;4.38;;;;;;;;;;5068910;28;20044;-58
2022/11/23 08:57:35;;;;;;;6.35;4.43;;;;;;;;;;5069582;28;20071;-58
2022/11/23 09:00:02;;;;;;;6.55;4.20;;;;;;;;;;5069493;28;20576;-59
2022/11/23 09:02:28;;;;;;;10.65;4.18;;;;;;;;;;5069045;28;20051;-60
2022/11/23 09:04:54;;;;;;;7.30;3.55;;;;;;;;;;5071781;28;20044;-59
2022/11/23 09:07:20;;;;;;;5.57;3.38;;;;;;;;;;5068949;28;20051;-58
2022/11/23 09:09:46;;;;;;;2.90;2.58;;;;;;;;;;5063595;28;20418;-58
2022/11/23 09:12:12;;;;;;;4.55;3.53;;;;;;;;;;5059627;28;20053;-58
2022/11/23 09:14:38;;;;;;;4.35;3.50;;;;;;;;;;5070774;28;20036;-59
2022/11/23 09:17:04;;;;;;;6.45;3.45;;;;;;;;;;5066290;28;20495;-59
2022/11/23 09:19:30;;;;;;;5.00;3.22;;;;;;;;;;5065907;28;20110;-59
2022/11/23 09:21:56;;;;;;;5.13;3.63;;;;;;;;;;5066743;28;20055;-58
2022/11/23 09:24:24;;;;;;;4.18;3.40;;;;;;;;;;5066456;28;20463;-58
2022/11/23 09:26:50;;;;;;;4.78;3.28;;;;;;;;;;5069078;28;20499;-58
2022/11/23 09:29:16;;;;;;;5.18;3.38;;;;;;;;;;5067908;28;20040;-58
2022/11/23 09:31:42;;;;;;;4.63;3.20;;;;;;;;;;5068358;28;20536;-59
2022/11/23 09:34:10;;;;;;;5.65;2.90;;;;;;;;;;5068912;28;20044;-58
2022/11/23 09:36:36;;;;;;;4.55;2.90;;;;;;;;;;5056431;28;20037;-59
2022/11/23 09:39:03;;;;;;;4.43;3.03;;;;;;;;;;5068349;28;20051;-59
2022/11/23 09:41:31;;;;;;;7.63;4.28;;;;;;;;;;5068890;28;20088;-58
2022/11/23 09:44:16;;;;;;;8.30;3.28;;;;;;;;;;5068231;28;20090;-59
2022/11/23 09:46:51;;;;;;;4.70;3.10;;;;;;;;;;5068792;28;20484;-58
2022/11/23 09:49:21;;;;;;;5.65;3.55;;;;;;;;;;5067647;28;20055;-58
2022/11/23 09:51:49;;;;;;;12.55;4.35;;;;;;;;;;5068171;28;20616;-58
2022/11/23 09:54:24;;;;;;;5.75;3.35;;;;;;;;;;5068051;28;20070;-58
2022/11/23 09:56:51;;;;;;;9.68;4.30;;;;;;;;;;5068152;28;20407;-58
2022/11/23 09:59:24;;;;;;;7.63;3.63;;;;;;;;;;5068511;28;20045;-59
2022/11/23 10:01:51;;;;;;;4.82;3.38;;;;;;;;;;5068666;28;20037;-60
2022/11/23 10:04:18;;;;;;;4.03;2.97;;;;;;;;;;5060012;28;20634;-60
2022/11/23 10:06:46;;;;;;;6.50;3.92;;;;;;;;;;5066611;28;20036;-59
2022/11/23 10:09:31;;;;;;;8.45;3.40;;;;;;;;;;5065754;28;20048;-58
2022/11/23 10:12:04;;;;;;;5.80;3.15;;;;;;;;;;5061213;28;20061;-58
2022/11/23 10:14:48;;;;;;;8.25;3.67;;;;;;;;;;5062104;28;20048;-58
2022/11/23 10:17:22;;;;;;;7.38;2.95;;;;;;;;;;5073956;28;20395;-59
2022/11/23 10:20:06;;;;;;;11.98;3.20;;;;;;;;;;5060810;28;20037;-59
2022/11/23 10:22:32;;;;;;;7.25;3.08;;;;;;;;;;5070245;28;20123;-58
2022/11/23 10:25:00;;;;;;;7.38;2.83;;;;;;;;;;5067253;28;20468;-59
2022/11/23 10:27:29;;;;;;;8.07;2.85;;;;;;;;;;5079022;28;20129;-60
2022/11/23 10:29:55;;;;;;;6.68;3.22;;;;;;;;;;5066220;28;20075;-59
2022/11/23 10:32:32;;;;;;;7.20;3.15;;;;;;;;;;5065924;28;20457;-59
2022/11/23 10:35:02;;;;;;;5.25;2.28;;;;;;;;;;5098920;28;20081;-59
2022/11/23 10:37:28;;;;;;;4.05;2.05;;;;;;;;;;5067411;28;20429;-59
2022/11/23 10:39:54;;;;;;;8.18;2.70;;;;;;;;;;5081751;28;20036;-59
2022/11/23 10:42:26;;;;;;;2.70;2.22;;;;;;;;;;5078332;28;20086;-59
2022/11/23 10:44:54;;;;;;;3.88;2.28;;;;;;;;;;5077086;28;20057;-60
2022/11/23 10:47:38;;;;;;;6.97;3.47;;;;;;;;;;5071036;28;20040;-59
2022/11/23 10:50:18;;;;;;;10.88;3.80;;;;;;;;;;5061145;28;20119;-61
2022/11/23 10:52:49;;;;;;;5.57;2.55;;;;;;;;;;5066619;28;20484;-60
2022/11/23 10:55:16;;;;;;;5.82;2.92;;;;;;;;;;5071611;28;20432;-60
2022/11/23 10:57:43;;;;;;;9.95;4.07;;;;;;;;;;5061268;28;20447;-59
2022/11/23 11:00:09;;;;;;;8.25;3.30;;;;;;;;;;5072682;28;20040;-59
2022/11/23 11:02:48;;;;;;;7.35;3.00;;;;;;;;;;5074119;28;20052;-59
2022/11/23 11:05:14;;;;;;;7.80;3.35;;;;;;;;;;5065575;28;20037;-59
2022/11/23 11:07:40;;;;;;;7.93;3.20;;;;;;;;;;5076086;28;20040;-60
2022/11/23 11:10:06;;;;;;;5.30;2.58;;;;;;;;;;5056352;28;20517;-59
2022/11/23 11:12:33;;;;;;;5.53;2.97;;;;;;;;;;5079829;28;20052;-59
2022/11/23 11:15:01;;;;;;;3.95;2.25;;;;;;;;;;5071850;28;20041;-59
2022/11/23 11:17:29;;;;;;;7.50;2.75;;;;;;;;;;5094104;28;20513;-60
2022/11/23 11:19:55;;;;;;;9.48;3.65;;;;;;;;;;5067435;28;20048;-59
2022/11/23 11:22:34;;;;;;;7.10;2.80;;;;;;;;;;5064217;28;20044;-59
2022/11/23 11:25:01;;;;;;;5.18;2.45;;;;;;;;;;5068498;28;20048;-59
2022/11/23 11:27:29;;;;;;;8.63;2.55;;;;;;;;;;5083342;28;20040;-59
2022/11/23 11:30:19;;;;;;;10.63;2.92;;;;;;;;;;5084217;28;20040;-59
2022/11/23 11:32:56;;;;;;;5.80;2.00;;;;;;;;;;5084346;28;20071;-59
2022/11/23 11:35:26;;;;;;;3.63;1.88;;;;;;;;;;5084144;28;20051;-59
2022/11/23 11:37:55;;;;;;;8.35;2.83;;;;;;;;;;5087151;28;20514;-59
2022/11/23 11:40:39;;;;;;;9.55;2.78;;;;;;;;;;5086739;28;20650;-59
2022/11/23 11:43:05;;;;;;;10.27;3.58;;;;;;;;;;5086635;28;20132;-59
2022/11/23 11:45:36;;;;;;;6.25;2.58;;;;;;;;;;5087023;28;20803;-59
2022/11/23 11:48:05;;;;;;;7.53;2.83;;;;;;;;;;5087428;28;20051;-59
2022/11/23 11:50:41;;;;;;;5.78;1.90;;;;;;;;;;5079810;28;20040;-59
2022/11/23 11:53:11;;;;;;;15.25;2.70;;;;;;;;;;5065961;28;20044;-59
2022/11/23 11:56:12;;;;;;;4.50;2.03;;;;;;;;;;5060526;28;20434;-60
2022/11/23 11:58:40;;;;;;;10.43;3.10;;;;;;;;;;5028590;28;20057;-60
2022/11/23 12:01:35;;;;;;;9.80;2.40;;;;;;;;;;5055559;28;20078;-60
2022/11/23 12:04:05;;;;;;;5.93;2.33;;;;;;;;;;5047689;28;20049;-59
2022/11/23 12:06:42;;;;;;;8.35;2.33;;;;;;;;;;5066123;28;20088;-60
2022/11/23 12:09:09;;;;;;;5.72;1.58;;;;;;;;;;5068205;28;20083;-59
2022/11/23 12:11:35;;;;;;;7.00;2.17;;;;;;;;;;5066971;28;20052;-59
2022/11/23 12:14:02;;;;;;;6.05;2.35;;;;;;;;;;5086176;28;20054;-59
2022/11/23 12:16:45;;;;;;;8.88;1.85;;;;;;;;;;5072406;28;20072;-60
2022/11/23 12:19:17;;;;;;;12.52;3.33;;;;;;;;;;5065424;28;20048;-59
2022/11/23 12:21:55;;;;;;;6.97;2.38;;;;;;;;;;5065775;28;20118;-59
2022/11/23 12:24:40;;;;;;;8.50;2.10;;;;;;;;;;5064426;28;20288;-59
2022/11/23 12:27:09;;;;;;;7.65;1.80;;;;;;;;;;5067129;28;20051;-59
2022/11/23 12:29:47;;;;;;;5.82;2.28;;;;;;;;;;5068949;28;20119;-59
2022/11/23 12:32:23;;;;;;;5.38;2.25;;;;;;;;;;5068835;28;20108;-59
2022/11/23 12:35:13;;;;;;;9.20;2.65;;;;;;;;;;5068108;28;20057;-59
2022/11/23 12:37:39;;;;;;;7.65;1.88;;;;;;;;;;5058179;28;20515;-59
2022/11/23 12:40:11;;;;;;;8.15;2.20;;;;;;;;;;5060507;28;20078;-59
2022/11/23 12:42:40;;;;;;;6.32;1.95;;;;;;;;;;5067286;28;20048;-59
2022/11/23 12:45:24;;;;;;;8.50;1.95;;;;;;;;;;5067914;28;20036;-59
2022/11/23 12:47:56;;;;;;;10.52;2.10;;;;;;;;;;5066625;28;20491;-59
2022/11/23 12:50:28;;;;;;;4.63;1.90;;;;;;;;;;5066176;28;20682;-59
2022/11/23 12:53:05;;;;;;;9.30;2.15;;;;;;;;;;5068514;28;20050;-59
2022/11/23 12:55:34;;;;;;;6.90;1.83;;;;;;;;;;5068477;28;20501;-59
2022/11/23 12:58:20;;;;;;;9.30;2.28;;;;;;;;;;5069023;28;20044;-58
2022/11/23 13:00:55;;;;;;;7.10;2.38;;;;;;;;;;5067031;28;20521;-59
2022/11/23 13:03:53;;;;;;;5.57;1.83;;;;;;;;;;5068243;28;20162;-59
2022/11/23 13:06:38;;;;;;;8.93;1.98;;;;;;;;;;5054469;28;20048;-59
2022/11/23 13:09:16;;;;;;;5.72;1.42;;;;;;;;;;5068370;28;20055;-59
2022/11/23 13:12:01;;;;;;;7.80;1.60;;;;;;;;;;5067777;28;20061;-60
2022/11/23 13:14:27;;;;;;;6.40;2.20;;;;;;;;;;5067400;28;20457;-59
2022/11/23 13:16:59;;;;;;;4.50;1.50;;;;;;;;;;5068689;28;20052;-60
2022/11/23 13:19:39;;;;;;;4.38;1.48;;;;;;;;;;5068801;28;20514;-60
2022/11/23 13:22:06;;;;;;;7.50;1.90;;;;;;;;;;5069148;28;20059;-59
2022/11/23 13:24:33;;;;;;;6.35;1.92;;;;;;;;;;5074329;28;20040;-59
2022/11/23 13:27:14;;;;;;;9.32;1.98;;;;;;;;;;5048273;28;20045;-59
2022/11/23 13:29:49;;;;;;;3.92;1.77;;;;;;;;;;5064669;28;20094;-59
2022/11/23 13:32:34;;;;;;;3.58;1.25;;;;;;;;;;5068557;28;20136;-60
2022/11/23 13:35:00;;;;;;;4.10;1.45;;;;;;;;;;5067403;28;20041;-60
2022/11/23 13:37:26;;;;;;;5.70;1.58;;;;;;;;;;5067635;28;20055;-59
2022/11/23 13:39:56;;;;;;;6.53;1.55;;;;;;;;;;5068447;28;20044;-59
2022/11/23 13:42:23;;;;;;;5.55;1.20;;;;;;;;;;5068215;28;20122;-59
2022/11/23 13:45:09;;;;;;;5.32;1.60;;;;;;;;;;5070406;28;20102;-59
2022/11/23 13:47:35;;;;;;;7.65;1.52;;;;;;;;;;5060761;28;20052;-60
2022/11/23 13:50:17;;;;;;;11.40;1.95;;;;;;;;;;5057073;28;20045;-60
2022/11/23 13:52:50;;;;;;;9.95;1.90;;;;;;;;;;5049195;28;20056;-60
2022/11/23 13:55:20;;;;;;;7.55;1.70;;;;;;;;;;5048152;28;20523;-59
2022/11/23 13:58:06;;;;;;;3.80;1.30;;;;;;;;;;5051360;28;20052;-59
2022/11/23 14:00:45;;;;;;;4.90;1.83;;;;;;;;;;5057191;28;20052;-59
2022/11/23 14:03:29;;;;;;;5.70;1.35;;;;;;;;;;5047611;28;20492;-59
2022/11/23 14:05:59;;;;;;;5.13;1.73;;;;;;;;;;5054666;28;20503;-59
2022/11/23 14:08:25;;;;;;;3.83;1.80;;;;;;;;;;5056091;28;20116;-59
2022/11/23 14:10:51;;;;;;;5.55;1.40;;;;;;;;;;5088323;28;20063;-59
2022/11/23 14:13:23;;;;;;;7.40;1.73;;;;;;;;;;5048080;28;20060;-59
2022/11/23 14:15:49;;;;;;;;;;;;;;;;;;5049159;28;20517;-59
2022/11/23 14:18:34;;;;;;;4.57;1.02;;;;;;;;;;5050595;28;20038;-60
2022/11/23 14:21:15;;;;;;;5.47;1.30;;;;;;;;;;5057421;28;20177;-59
2022/11/23 14:23:44;;;;;;;4.88;1.30;;;;;;;;;;5047356;28;20091;-59
2022/11/23 14:26:29;;;;;;;7.07;1.67;;;;;;;;;;5048029;28;20044;-59
2022/11/23 14:29:14;;;;;;;4.88;1.52;;;;;;;;;;5049078;28;20037;-59
2022/11/23 14:31:52;;;;;;;3.92;1.60;;;;;;;;;;5056136;28;20045;-59
2022/11/23 14:34:28;;;;;;;2.83;0.95;;;;;;;;;;5048063;28;20106;-59
2022/11/23 14:36:59;;;;;;;3.08;1.45;;;;;;;;;;5048247;28;20047;-60
2022/11/23 14:39:43;;;;;;;3.13;0.95;;;;;;;;;;5068078;28;20055;-59
2022/11/23 14:42:14;;;;;;;2.40;0.88;;;;;;;;;;5098701;28;20455;-59
2022/11/23 14:44:41;;;;;;;3.78;0.80;;;;;;;;;;5065213;28;20422;-59
2022/11/23 14:47:08;;;;;;;6.60;1.55;;;;;;;;;;5066936;28;20048;-59
2022/11/23 14:49:34;;;;;;;2.85;0.70;;;;;;;;;;5066695;28;20094;-60